SBJU/JDO METAR and TAF weather

Enter ICAO airport designator
Station Type Date Time Source
SBJU METAR 2018/12/19 03:00 UTC NOAA

SBJU 190300Z 14004KT 9999 SCT020 25/20 Q1018


Station Type Date Time Source
SBJU Decoded METAR 2018/12/19 03:00 UTC NOAA

Station name not available
Dec 18, 2018 - 10:00 PM EST / 2018.12.19 0300 UTC
Wind: from the SE (140 degrees) at 5 MPH (4 KT):0
Visibility: greater than 7 mile(s):0
Sky conditions: partly cloudy
Temperature: 77 F (25 C)
Dew Point: 68 F (20 C)
Relative Humidity: 73%
Pressure (altimeter): 30.06 in. Hg (1018 hPa)
ob: SBJU 190300Z 14004KT 9999 SCT020 25/20 Q1018
cycle: 3

Station Type Date Time Source
SBJU TAF 2011/11/01 00:05 UTC NOAA

TAF SBJU 012200Z 0200/0212 00000KT 9999 SCT020 TX28/0200Z TN24/0207Z
BECMG 0210/0212 06005KT
RMK PCE


Example: see airport list